Portada
METAR-TAF:

METAR-TAF

Aeroports :

Aeroport Internacional Diori Hamani

Niamey, Níger

latitud: 13-29N, longitud: 002-10E, altitud: 223 m

Observació

L'informe es va fer fa 57 minuts, a les 09:00 UTC
Vent 3 kt amb direcció variable
Temperatura 35°C
Humitat 8%
Pressió 1010 hPa
Visibilitat 10 km o més
sense núvols per sota de 1500 mi sense presència de cumulonimbus.

METAR: DRRN 020900Z VRB03KT CAVOK 35/M04 Q1010 NOSIG

Hora: 10:57 (09:57 UTC)

Pronòstic

L'informe es va fer fa 4 hores i 57 minuts, a les 05:00 UTC
Pronòstic vàlid del 02 a les 06 UTC al 03 a les 12 UTC
Vent 10 kt del Nord/Nord-Est
Visibilitat: 6000 m
Temporalment
l' 01 a les 06 UTC al 01 a les 08 UTC
Visibilitat: 4500 m
Pols estès

TAF: DRRN 020500Z 0206/0312 03010KT 6000 NSC TEMPO 0106/0108 4500 DU

Observacions i pronòstics meteorològics de més de 4000 aeroports (METAR i TAF).

Les estacions disponibles són els punts grocs i vermells al mapa.

Posi el ratolí al punt desitjat per veure el nom de l'estació.

Feu clic per veure les observacions i els pronòstics meteorològics.

Per canviar el mapa: feu clic els botons verds amb una creu de color negre per apropar; al botó verd amb un guió per allunyar la imatge; o en les fletxes verdes per a mapes adjacents.


METAR-TAF: